Osteen, FL

2:39 PM EST on December 21, 2014 (GMT -0500)
New Smyrna Beach Municipal | Change Station
CLOSE
Current Station
Airport
Location: New Smyrna Beach,
Elevation: 10 ft
Nearby Weather Stations

Elev 10 ft 29.06 °N, 80.95 °W | Updated 52 minutes ago

Partly Cloudy
Partly Cloudy
72 °F
Feels Like 72 °F
N
8
Wind Variable Wind from NE

Today
High -- | Low -- °F
--% Chance of Precip.
Yesterday
High -- | Low -- °F
Precip. -- in
7:13 AM 5:31 PM
Waning Crescent, 0% visible
Pressure 30.05 in
Visibility 10.0 miles
Clouds Scattered Clouds 5500 ft
Dew Point 64 °F
Humidity 78%
Rainfall 0.00 in
Snow Depth Not available.
UV 4 out of 12
Pollen 4.70 out of 12
Air Quality Not available.
Flu Activity Not available.
METAR KEVB 211847Z 04007KT 10SM SCT055 22/18 A3005

More Conditions Fewer Conditions

Pressure 30.05 in
Visibility 10.0 miles
Clouds Scattered Clouds 5500 ft
Dew Point 64 °F
Humidity 78%
Rainfall 0.00 in
Snow Depth Not available.
UV 4 out of 12
Pollen 4.70 out of 12
Air Quality Not available.
Flu Activity Not available.
METAR KEVB 211847Z 04007KT 10SM SCT055 22/18 A3005

More Conditions Fewer Conditions

Nowcast | as of 12:31 PM EST on December 21, 2014

A stalled front lingers across lake and Volusia counties this afternoon and currently greatest cloud cover and rainfall exists north of this boundary and across the eastern Gulf. Light rainfall will mainly move across areas from Leesburg to Daytona Beach northward through early afternoon and then additional showers will be possible from the Orlando area northward later in the day as moisture continues to increase along the front. Otherwise partly cloudy skies are expected into mid afternoon with temperatures in the 70s to around 80 degrees. Additional details...including graphics are available online at: http://www.Srh.NOAA.Gov/mlb/blog.Php

×

10-Day Weather Forecast

Almanac

Astronomy

Dec. 21, 2014 Rise Set
Actual Time
Civil Twilight
Nautical Twilight
Astronomical Twilight
Moon
Length of Visible Light
Length of Day
Tomorrow will be .
, % of the Moon is Illuminated

Today's Extremes

State Highs State Lows

Community

WunderPhotos

Upload Photos

1,779,467 photos uploaded!

WunderBlogs® & News

Nearby

Air Quality

  Air Quality AQ Index Pollutant
Not available.

Snow Depth

Station Depth Elevation

Earthquake Activity

City Distance Mag. Time & Date
Minimum magnitude displayed is 2.5.

Coastal Water Temperatures

Place Temperature

Nearby Weather Stations